createdAt,value
2022-10-13T00:00:57.297Z,14.77
2022-10-13T00:03:23.789Z,16.05
2022-10-13T00:05:51.255Z,15.82
2022-10-13T00:08:20.983Z,16.85
2022-10-13T00:10:49.964Z,12.63
2022-10-13T00:13:20.388Z,14.35
2022-10-13T00:15:48.526Z,13.40
2022-10-13T00:18:16.147Z,13.77
2022-10-13T00:20:45.033Z,11.68
2022-10-13T00:23:11.983Z,14.82
2022-10-13T00:25:43.376Z,12.13
2022-10-13T00:28:10.408Z,10.80
2022-10-13T00:30:37.823Z,10.63
2022-10-13T00:33:05.085Z,10.35
2022-10-13T00:35:31.583Z,16.85
2022-10-13T00:37:58.040Z,12.52
2022-10-13T00:40:27.773Z,10.52
2022-10-13T00:42:54.207Z,11.35
2022-10-13T00:45:29.361Z,10.68
2022-10-13T00:48:01.768Z,14.98
2022-10-13T00:50:35.447Z,12.90
2022-10-13T00:53:02.680Z,12.65
2022-10-13T00:55:34.965Z,14.88
2022-10-13T00:58:05.558Z,12.13
2022-10-13T01:00:33.270Z,12.57
2022-10-13T01:03:00.704Z,13.88
2022-10-13T01:05:27.668Z,11.52
2022-10-13T01:07:56.958Z,11.80
2022-10-13T01:10:48.316Z,14.45
2022-10-13T01:13:29.592Z,14.40
2022-10-13T01:16:27.180Z,11.88
2022-10-13T01:19:19.675Z,15.75
2022-10-13T01:21:58.188Z,13.50
2022-10-13T01:24:57.967Z,12.05
2022-10-13T01:28:03.743Z,14.05
2022-10-13T01:30:37.637Z,24.75
2022-10-13T01:33:25.541Z,12.50
2022-10-13T01:36:24.532Z,12.70
2022-10-13T01:39:01.932Z,11.73
2022-10-13T01:41:36.861Z,12.45
2022-10-13T01:44:16.050Z,14.70
2022-10-13T01:46:51.574Z,12.18
2022-10-13T01:49:21.333Z,10.77
2022-10-13T01:51:49.249Z,14.70
2022-10-13T01:54:16.048Z,13.95
2022-10-13T01:56:42.464Z,10.60
2022-10-13T01:59:13.646Z,12.68
2022-10-13T02:02:02.114Z,9.80
2022-10-13T02:04:47.362Z,13.20
2022-10-13T02:07:23.507Z,17.00
2022-10-13T02:10:27.242Z,11.20
2022-10-13T02:13:01.002Z,12.25
2022-10-13T02:15:47.644Z,11.13
2022-10-13T02:18:20.222Z,12.65
2022-10-13T02:20:47.775Z,11.32
2022-10-13T02:23:17.443Z,8.30
2022-10-13T02:25:45.509Z,11.57
2022-10-13T02:28:14.233Z,14.93
2022-10-13T02:30:45.898Z,12.35
2022-10-13T02:33:13.572Z,16.40
2022-10-13T02:35:40.990Z,13.13
2022-10-13T02:38:07.633Z,17.00
2022-10-13T02:40:34.276Z,12.30
2022-10-13T02:43:00.743Z,9.05
2022-10-13T02:45:27.180Z,12.73
2022-10-13T02:47:54.853Z,12.05
2022-10-13T02:50:21.598Z,12.77
2022-10-13T02:52:50.165Z,13.25
2022-10-13T02:55:16.718Z,14.27
2022-10-13T02:57:45.764Z,13.65
2022-10-13T03:00:13.057Z,12.95
2022-10-13T03:02:39.610Z,12.18
2022-10-13T03:05:06.452Z,14.40
2022-10-13T03:07:32.937Z,18.70
2022-10-13T03:09:59.352Z,11.80
2022-10-13T03:12:25.831Z,9.57
2022-10-13T03:14:52.289Z,9.55
2022-10-13T03:17:18.798Z,9.35
2022-10-13T03:19:45.249Z,11.63
2022-10-13T03:22:17.141Z,10.23
2022-10-13T03:24:43.749Z,14.57
2022-10-13T03:27:10.886Z,11.93
2022-10-13T03:29:37.362Z,14.45
2022-10-13T03:32:03.935Z,11.25
2022-10-13T03:34:30.417Z,11.82
2022-10-13T03:36:57.845Z,14.57
2022-10-13T03:39:24.331Z,16.98
2022-10-13T03:41:50.828Z,12.30
2022-10-13T03:44:17.304Z,16.02
2022-10-13T03:46:44.543Z,14.85
2022-10-13T03:49:12.073Z,17.50
2022-10-13T03:51:38.797Z,12.50
2022-10-13T03:54:05.357Z,11.43
2022-10-13T03:56:31.814Z,15.52
2022-10-13T03:59:00.486Z,12.07
2022-10-13T04:01:29.882Z,13.77
2022-10-13T04:03:58.328Z,11.27
2022-10-13T04:06:26.426Z,13.45
2022-10-13T04:08:53.120Z,10.95
2022-10-13T04:11:20.484Z,16.73
2022-10-13T04:13:51.702Z,11.65
2022-10-13T04:16:25.795Z,16.23
2022-10-13T04:19:01.552Z,12.20
2022-10-13T04:21:28.682Z,11.48
2022-10-13T04:23:57.281Z,14.52
2022-10-13T04:26:25.632Z,12.90
2022-10-13T04:28:53.410Z,11.30
2022-10-13T04:31:22.004Z,17.98
2022-10-13T04:33:49.158Z,11.15
2022-10-13T04:36:16.363Z,13.48
2022-10-13T04:38:44.979Z,13.07
2022-10-13T04:41:16.587Z,16.65
2022-10-13T04:43:43.923Z,14.27
2022-10-13T04:46:14.400Z,15.05
2022-10-13T04:48:41.635Z,15.55
2022-10-13T04:51:11.494Z,12.57
2022-10-13T04:53:38.417Z,16.30
2022-10-13T04:56:13.608Z,16.40
2022-10-13T04:58:41.091Z,12.65
2022-10-13T05:01:11.877Z,14.60
2022-10-13T05:03:38.515Z,14.13
2022-10-13T05:06:05.156Z,12.55
2022-10-13T05:08:33.154Z,17.98
2022-10-13T05:11:01.944Z,11.90
2022-10-13T05:13:29.706Z,15.30
2022-10-13T05:15:57.551Z,12.02
2022-10-13T05:18:24.428Z,16.38
2022-10-13T05:20:51.086Z,12.63
2022-10-13T05:23:17.882Z,14.40
2022-10-13T05:25:44.675Z,16.17
2022-10-13T05:28:13.407Z,12.20
2022-10-13T05:30:39.887Z,15.57
2022-10-13T05:33:06.333Z,13.30
2022-10-13T05:35:32.755Z,13.32
2022-10-13T05:37:59.206Z,14.63
2022-10-13T05:40:25.711Z,14.65
2022-10-13T05:42:58.560Z,19.10
2022-10-13T05:45:27.898Z,16.50
2022-10-13T05:47:54.331Z,10.60
2022-10-13T05:50:20.882Z,15.80
2022-10-13T05:52:47.446Z,16.23
2022-10-13T05:55:15.396Z,13.55
2022-10-13T05:57:45.698Z,16.25
2022-10-13T06:00:15.709Z,16.52
2022-10-13T06:03:14.557Z,13.70
2022-10-13T06:05:47.334Z,14.57
2022-10-13T06:08:17.244Z,12.20
2022-10-13T06:10:44.825Z,13.63
2022-10-13T06:13:11.291Z,14.80
2022-10-13T06:15:37.719Z,19.35
2022-10-13T06:18:09.012Z,22.13
2022-10-13T06:20:36.415Z,12.07
2022-10-13T06:23:02.899Z,19.30
2022-10-13T06:25:29.997Z,16.65
2022-10-13T06:27:57.305Z,17.50
2022-10-13T06:30:23.994Z,13.85
2022-10-13T06:32:50.432Z,18.17
2022-10-13T06:35:16.991Z,17.48
2022-10-13T06:37:43.629Z,15.00
2022-10-13T06:40:10.617Z,13.75
2022-10-13T06:42:37.051Z,19.33
2022-10-13T06:45:10.379Z,19.13
2022-10-13T06:47:39.672Z,18.80
2022-10-13T06:50:06.291Z,20.50
2022-10-13T06:52:32.795Z,17.02
2022-10-13T06:54:59.231Z,26.23
2022-10-13T06:57:28.913Z,18.80
2022-10-13T06:59:57.316Z,20.88
2022-10-13T07:06:39.206Z,14.55
2022-10-13T07:09:23.881Z,20.25
2022-10-13T07:11:56.460Z,20.50
2022-10-13T07:14:23.473Z,16.75
2022-10-13T07:16:50.555Z,18.60
2022-10-13T07:22:39.599Z,27.40
2022-10-13T07:25:12.144Z,19.73
2022-10-13T07:27:40.674Z,18.17
2022-10-13T07:30:09.056Z,20.63
2022-10-13T07:32:36.124Z,22.25
2022-10-13T07:35:03.845Z,24.30
2022-10-13T07:37:30.266Z,20.75
2022-10-13T07:39:56.936Z,28.17
2022-10-13T07:42:24.885Z,15.77
2022-10-13T07:44:51.333Z,19.90
2022-10-13T07:47:18.017Z,21.45
2022-10-13T07:49:44.794Z,20.92
2022-10-13T07:52:11.257Z,21.75
2022-10-13T07:54:37.699Z,15.52
2022-10-13T07:57:04.398Z,19.50
2022-10-13T07:59:33.212Z,23.70
2022-10-13T08:02:00.645Z,20.38
2022-10-13T08:04:34.957Z,23.60
2022-10-13T08:07:03.070Z,20.73
2022-10-13T08:09:29.691Z,23.23
2022-10-13T08:12:00.612Z,19.15
2022-10-13T08:14:29.028Z,21.42
2022-10-13T08:16:56.300Z,20.10
2022-10-13T08:19:23.788Z,19.88
2022-10-13T08:21:58.264Z,27.83
2022-10-13T08:24:26.782Z,19.67
2022-10-13T08:26:53.238Z,20.10
2022-10-13T08:29:22.389Z,19.25
2022-10-13T08:31:50.499Z,21.55
2022-10-13T08:34:17.123Z,22.48
2022-10-13T08:36:43.832Z,34.35
2022-10-13T08:39:10.577Z,19.20
2022-10-13T08:41:40.330Z,23.65
2022-10-13T08:47:28.613Z,22.48
2022-10-13T08:50:00.237Z,22.67
2022-10-13T08:52:29.422Z,20.98
2022-10-13T08:54:57.118Z,21.40
2022-10-13T08:57:24.370Z,18.58
2022-10-13T08:59:53.061Z,18.50
2022-10-13T09:02:30.663Z,21.00
2022-10-13T09:05:02.202Z,21.60
2022-10-13T09:09:57.819Z,23.50
2022-10-13T09:12:25.478Z,18.65
2022-10-13T09:14:59.699Z,18.45
2022-10-13T09:17:27.019Z,21.33
2022-10-13T09:20:18.585Z,22.30
2022-10-13T09:22:59.843Z,18.17
2022-10-13T09:25:26.304Z,21.88
2022-10-13T09:27:54.543Z,17.48
2022-10-13T09:30:32.299Z,22.10
2022-10-13T09:33:14.914Z,17.80
2022-10-13T09:35:44.316Z,20.70
2022-10-13T09:38:19.847Z,18.75
2022-10-13T09:41:20.879Z,22.23
2022-10-13T09:43:47.287Z,17.92
2022-10-13T09:46:46.581Z,19.75
2022-10-13T09:49:34.660Z,16.15
2022-10-13T09:52:16.062Z,21.60
2022-10-13T09:54:53.957Z,20.35
2022-10-13T09:57:45.784Z,23.80
2022-10-13T10:00:24.121Z,20.05
2022-10-13T10:03:14.711Z,26.10
2022-10-13T10:05:44.452Z,19.17
2022-10-13T10:08:25.388Z,19.95
2022-10-13T10:11:10.386Z,23.55
2022-10-13T10:13:36.861Z,18.35
2022-10-13T10:16:11.589Z,22.55
2022-10-13T10:18:45.042Z,15.32
2022-10-13T10:21:49.297Z,18.60
2022-10-13T10:24:30.953Z,22.55
2022-10-13T10:27:05.867Z,13.70
2022-10-13T10:29:58.354Z,18.65
2022-10-13T10:32:41.739Z,20.38
2022-10-13T10:35:40.650Z,17.25
2022-10-13T10:38:14.727Z,14.05
2022-10-13T10:40:54.705Z,13.77
2022-10-13T10:43:43.316Z,14.82
2022-10-13T10:46:26.022Z,11.50
2022-10-13T10:48:57.360Z,18.15
2022-10-13T10:54:00.810Z,13.85
2022-10-13T10:56:39.720Z,15.70
2022-10-13T10:59:12.428Z,14.23
2022-10-13T11:01:43.354Z,13.55
2022-10-13T11:04:32.211Z,14.73
2022-10-13T11:06:58.910Z,14.48
2022-10-13T11:09:45.680Z,12.00
2022-10-13T11:12:49.925Z,14.60
2022-10-13T11:19:39.445Z,11.25
2022-10-13T11:22:05.817Z,12.52
2022-10-13T11:24:36.490Z,12.07
2022-10-13T11:27:09.163Z,12.77
2022-10-13T11:29:58.679Z,13.40
2022-10-13T11:32:25.065Z,11.38
2022-10-13T11:35:06.946Z,12.30
2022-10-13T11:38:17.893Z,9.98
2022-10-13T11:41:19.069Z,8.20
2022-10-13T11:44:07.787Z,13.00
2022-10-13T11:47:02.708Z,13.45
2022-10-13T11:50:04.467Z,14.02
2022-10-13T11:53:08.884Z,11.30
2022-10-13T11:55:57.976Z,12.68
2022-10-13T11:58:25.510Z,9.02
2022-10-13T12:00:56.466Z,8.93
2022-10-13T12:03:29.798Z,9.27
2022-10-13T12:06:03.362Z,11.60
2022-10-13T12:08:32.558Z,11.38
2022-10-13T12:11:02.849Z,9.80
2022-10-13T12:13:31.752Z,10.13
2022-10-13T12:16:06.491Z,12.10
2022-10-13T12:18:39.155Z,10.05
2022-10-13T12:21:14.558Z,15.38
2022-10-13T12:23:41.068Z,8.75
2022-10-13T12:26:07.968Z,9.80
2022-10-13T12:28:55.196Z,11.38
2022-10-13T12:31:27.546Z,9.70
2022-10-13T12:34:01.954Z,13.90
2022-10-13T12:36:31.174Z,10.23
2022-10-13T12:39:01.569Z,11.35
2022-10-13T12:41:34.356Z,12.27
2022-10-13T12:44:04.045Z,12.82
2022-10-13T12:46:41.345Z,10.77
2022-10-13T12:49:15.159Z,11.13
2022-10-13T12:51:44.713Z,7.43
2022-10-13T12:54:30.353Z,10.43
2022-10-13T12:57:00.158Z,10.13
2022-10-13T12:59:28.942Z,9.82
2022-10-13T13:02:01.537Z,11.00
2022-10-13T13:04:30.773Z,12.27
2022-10-13T13:07:02.579Z,9.25
2022-10-13T13:09:34.352Z,9.07
2022-10-13T13:12:13.069Z,9.25
2022-10-13T13:14:44.921Z,11.85
2022-10-13T13:17:12.798Z,10.05
2022-10-13T13:19:42.291Z,10.57
2022-10-13T13:22:10.284Z,10.90
2022-10-13T13:24:40.065Z,8.40
2022-10-13T13:27:21.537Z,12.25
2022-10-13T13:29:48.311Z,7.50
2022-10-13T13:32:20.131Z,6.90
2022-10-13T13:34:47.174Z,7.75
2022-10-13T13:37:26.937Z,11.40
2022-10-13T13:39:53.661Z,12.27
2022-10-13T13:42:20.167Z,10.77
2022-10-13T13:44:47.695Z,11.00
2022-10-13T13:47:26.078Z,10.63
2022-10-13T13:49:53.915Z,12.38
2022-10-13T13:52:22.951Z,15.15
2022-10-13T13:54:52.820Z,8.95
2022-10-13T13:57:20.342Z,11.07
2022-10-13T13:59:47.739Z,12.15
2022-10-13T14:02:20.787Z,12.98
2022-10-13T14:04:47.254Z,9.85
2022-10-13T14:07:14.062Z,13.18
2022-10-13T14:09:40.559Z,15.48
2022-10-13T14:12:09.801Z,11.77
2022-10-13T14:14:36.239Z,13.32
2022-10-13T14:17:04.579Z,15.02
2022-10-13T14:19:32.444Z,12.63
2022-10-13T14:21:59.631Z,8.73
2022-10-13T14:24:26.083Z,13.45
2022-10-13T14:26:52.958Z,12.02
2022-10-13T14:29:19.825Z,8.52
2022-10-13T14:31:46.287Z,13.98
2022-10-13T14:34:12.848Z,10.52
2022-10-13T14:36:39.989Z,13.23
2022-10-13T14:39:06.435Z,10.52
2022-10-13T14:41:33.053Z,11.00
2022-10-13T14:43:59.582Z,10.95
2022-10-13T14:46:26.121Z,11.45
2022-10-13T14:48:52.589Z,8.23
2022-10-13T14:51:19.031Z,14.40
2022-10-13T14:53:45.570Z,10.25
2022-10-13T14:56:32.693Z,17.35
2022-10-13T14:59:01.394Z,12.27
2022-10-13T15:01:36.530Z,16.25
2022-10-13T15:04:03.367Z,10.63
2022-10-13T15:06:31.416Z,10.50
2022-10-13T15:08:58.332Z,12.20
2022-10-13T15:11:26.136Z,10.48
2022-10-13T15:13:52.765Z,8.23
2022-10-13T15:16:21.959Z,14.73
2022-10-13T15:18:49.097Z,8.98
2022-10-13T15:21:16.585Z,9.20
2022-10-13T15:23:43.902Z,9.23
2022-10-13T15:26:12.413Z,9.15
2022-10-13T15:28:41.819Z,8.00
2022-10-13T15:31:10.289Z,8.27
2022-10-13T15:33:37.023Z,8.00
2022-10-13T15:36:03.829Z,7.53
2022-10-13T15:38:31.300Z,7.18
2022-10-13T15:41:01.552Z,8.23
2022-10-13T15:43:28.368Z,6.80
2022-10-13T15:45:59.480Z,7.45
2022-10-13T15:48:26.432Z,7.43
2022-10-13T15:50:52.877Z,10.48
2022-10-13T15:53:20.117Z,6.65
2022-10-13T15:55:47.544Z,7.03
2022-10-13T15:58:14.198Z,6.82
2022-10-13T16:00:41.439Z,7.90
2022-10-13T16:03:13.458Z,7.45
2022-10-13T16:05:41.810Z,6.60
2022-10-13T16:08:08.401Z,8.85
2022-10-13T16:10:41.926Z,6.97
2022-10-13T16:13:12.632Z,7.90
2022-10-13T16:15:39.146Z,7.15
2022-10-13T16:18:05.820Z,10.05
2022-10-13T16:20:35.013Z,8.75
2022-10-13T16:23:01.876Z,7.97
2022-10-13T16:25:29.250Z,9.98
2022-10-13T16:27:55.996Z,8.45
2022-10-13T16:30:22.466Z,10.20
2022-10-13T16:32:48.901Z,13.43
2022-10-13T16:35:15.362Z,14.00
2022-10-13T16:37:41.886Z,12.70
2022-10-13T16:40:08.890Z,10.43
2022-10-13T16:42:35.344Z,13.45
2022-10-13T16:45:01.813Z,14.57
2022-10-13T16:47:28.245Z,12.70
2022-10-13T16:49:54.745Z,12.75
2022-10-13T16:52:21.260Z,12.57
2022-10-13T16:54:47.958Z,12.52
2022-10-13T16:57:14.402Z,11.18
2022-10-13T16:59:41.059Z,9.70
2022-10-13T17:02:15.463Z,8.50
2022-10-13T17:04:43.260Z,11.35
2022-10-13T17:07:09.783Z,15.05
2022-10-13T17:09:36.238Z,8.27
2022-10-13T17:12:03.773Z,10.80
2022-10-13T17:14:30.307Z,8.55
2022-10-13T17:16:57.943Z,6.68
2022-10-13T17:19:24.515Z,7.70
2022-10-13T17:21:51.021Z,10.55
2022-10-13T17:24:18.273Z,14.55
2022-10-13T17:26:44.813Z,19.83
2022-10-13T17:29:11.245Z,12.45
2022-10-13T17:31:37.826Z,13.48
2022-10-13T17:34:06.020Z,13.82
2022-10-13T17:36:33.974Z,9.60
2022-10-13T17:39:09.371Z,21.42
2022-10-13T17:41:39.208Z,19.85
2022-10-13T17:44:05.724Z,12.50
2022-10-13T17:46:38.046Z,10.60
2022-10-13T17:49:07.205Z,11.27
2022-10-13T17:51:33.728Z,10.00
2022-10-13T17:54:00.677Z,10.65
2022-10-13T17:56:27.872Z,10.10
2022-10-13T17:58:54.752Z,10.98
2022-10-13T18:01:30.294Z,20.48
2022-10-13T18:03:59.661Z,14.13
2022-10-13T18:06:36.893Z,11.32
2022-10-13T18:09:06.094Z,10.48
2022-10-13T18:11:33.751Z,10.13
2022-10-13T18:14:00.680Z,10.00
2022-10-13T18:16:27.167Z,15.63
2022-10-13T18:18:54.322Z,14.40
2022-10-13T18:21:23.172Z,16.95
2022-10-13T18:23:51.749Z,9.82
2022-10-13T18:26:19.694Z,13.88
2022-10-13T18:28:47.533Z,11.65
2022-10-13T18:31:22.154Z,12.65
2022-10-13T18:33:50.788Z,14.25
2022-10-13T18:36:41.909Z,13.75
2022-10-13T18:39:12.842Z,13.75
2022-10-13T18:41:40.613Z,12.73
2022-10-13T18:44:08.181Z,23.15
2022-10-13T18:46:36.311Z,11.60
2022-10-13T18:49:07.329Z,11.55
2022-10-13T18:51:36.558Z,17.02
2022-10-13T18:54:04.256Z,11.10
2022-10-13T18:56:32.939Z,11.65
2022-10-13T18:59:01.636Z,13.40
2022-10-13T19:01:30.522Z,13.77
2022-10-13T19:03:56.966Z,15.10
2022-10-13T19:06:28.568Z,12.25
2022-10-13T19:09:01.156Z,12.30
2022-10-13T19:11:29.172Z,19.33
2022-10-13T19:13:56.972Z,14.65
2022-10-13T19:16:25.235Z,23.58
2022-10-13T19:18:52.408Z,15.20
2022-10-13T19:21:20.736Z,12.55
2022-10-13T19:23:47.334Z,14.68
2022-10-13T19:28:57.529Z,12.55
2022-10-13T19:31:26.851Z,15.63
2022-10-13T19:33:55.631Z,16.25
2022-10-13T19:36:25.897Z,19.45
2022-10-13T19:38:54.228Z,23.63
2022-10-13T19:41:21.060Z,11.50
2022-10-13T19:43:47.886Z,12.88
2022-10-13T19:46:14.492Z,19.42
2022-10-13T19:48:41.023Z,19.10
2022-10-13T19:51:09.604Z,17.48
2022-10-13T19:53:37.194Z,12.88
2022-10-13T19:56:04.119Z,13.80
2022-10-13T19:58:30.874Z,11.27
2022-10-13T20:01:03.187Z,18.90
2022-10-13T20:03:29.702Z,16.77
2022-10-13T20:05:56.140Z,15.73
2022-10-13T20:08:22.723Z,20.02
2022-10-13T20:10:49.214Z,12.93
2022-10-13T20:13:15.740Z,12.32
2022-10-13T20:15:43.669Z,19.00
2022-10-13T20:18:12.932Z,18.88
2022-10-13T20:20:41.161Z,10.55
2022-10-13T20:23:08.986Z,19.02
2022-10-13T20:25:38.686Z,11.82
2022-10-13T20:28:06.048Z,14.30
2022-10-13T20:30:33.292Z,14.68
2022-10-13T20:33:00.315Z,13.73
2022-10-13T20:35:27.335Z,11.27
2022-10-13T20:37:53.991Z,14.45
2022-10-13T20:40:20.702Z,12.45
2022-10-13T20:42:51.704Z,12.38
2022-10-13T20:45:20.212Z,10.85
2022-10-13T20:47:47.445Z,15.13
2022-10-13T20:50:14.263Z,14.30
2022-10-13T20:52:40.737Z,14.75
2022-10-13T20:55:07.490Z,12.07
2022-10-13T20:57:36.576Z,11.80
2022-10-13T21:00:04.352Z,10.82
2022-10-13T21:02:30.795Z,11.77
2022-10-13T21:04:57.416Z,16.60
2022-10-13T21:07:24.082Z,13.05
2022-10-13T21:09:53.810Z,10.38
2022-10-13T21:12:21.499Z,11.18
2022-10-13T21:14:47.963Z,15.65
2022-10-13T21:17:14.421Z,12.45
2022-10-13T21:19:40.827Z,13.55
2022-10-13T21:22:07.292Z,14.38
2022-10-13T21:24:33.734Z,15.73
2022-10-13T21:27:00.193Z,14.27
2022-10-13T21:29:26.790Z,16.60
2022-10-13T21:31:53.244Z,15.65
2022-10-13T21:34:19.717Z,13.35
2022-10-13T21:36:46.480Z,13.80
2022-10-13T21:39:13.829Z,16.77
2022-10-13T21:41:40.298Z,12.85
2022-10-13T21:44:06.775Z,16.75
2022-10-13T21:46:34.915Z,13.70
2022-10-13T21:49:03.642Z,15.68
2022-10-13T21:51:38.379Z,14.35
2022-10-13T21:54:08.790Z,12.75
2022-10-13T21:56:37.078Z,15.85
2022-10-13T21:59:04.389Z,17.60
2022-10-13T22:01:31.058Z,16.98
2022-10-13T22:04:00.306Z,16.10
2022-10-13T22:06:28.048Z,15.38
2022-10-13T22:08:56.751Z,16.00
2022-10-13T22:11:25.842Z,15.73
2022-10-13T22:13:52.880Z,9.27
2022-10-13T22:16:22.013Z,10.45
2022-10-13T22:18:51.409Z,17.30
2022-10-13T22:21:20.959Z,14.38
2022-10-13T22:23:47.437Z,15.75
2022-10-13T22:26:15.677Z,14.30
2022-10-13T22:28:42.748Z,14.50
2022-10-13T22:31:11.648Z,20.92
2022-10-13T22:33:39.485Z,18.60
2022-10-13T22:36:10.717Z,16.73
2022-10-13T22:38:37.673Z,21.80
2022-10-13T22:41:07.904Z,9.95
2022-10-13T22:43:35.307Z,20.50
2022-10-13T22:46:19.091Z,17.15
2022-10-13T22:48:45.568Z,17.65
2022-10-13T22:51:16.166Z,19.67
2022-10-13T22:53:42.960Z,16.88
2022-10-13T22:56:12.794Z,21.63
2022-10-13T22:58:39.292Z,21.83
2022-10-13T23:01:11.986Z,20.13
2022-10-13T23:03:39.909Z,27.20
2022-10-13T23:06:11.143Z,24.50
2022-10-13T23:08:38.577Z,19.40
2022-10-13T23:11:05.223Z,20.65
2022-10-13T23:13:31.725Z,21.08
2022-10-13T23:16:06.944Z,20.48
2022-10-13T23:18:42.337Z,17.27
2022-10-13T23:21:23.294Z,12.93
2022-10-13T23:23:56.435Z,11.75
2022-10-13T23:26:23.127Z,23.70
2022-10-13T23:28:49.779Z,22.00
2022-10-13T23:31:17.429Z,15.75
2022-10-13T23:33:44.710Z,18.58
2022-10-13T23:36:16.233Z,17.92
2022-10-13T23:38:44.277Z,22.85
2022-10-13T23:41:13.267Z,26.48
2022-10-13T23:43:40.938Z,24.08
2022-10-13T23:46:08.344Z,25.15
2022-10-13T23:48:34.773Z,22.85
2022-10-13T23:51:06.216Z,18.42
2022-10-13T23:56:07.648Z,22.00
2022-10-13T23:58:39.413Z,26.20
